sensor_id;sensor_type;location;lat;lon;timestamp;pressure;altitude;pressure_sealevel;temperature;humidity
9969;BME280;5025;48.890;9.278;2022-07-10T00:00:58;99387.91;;;19.16;68.49
9969;BME280;5025;48.890;9.278;2022-07-10T00:03:23;99384.34;;;19.10;68.68
9969;BME280;5025;48.890;9.278;2022-07-10T00:05:48;99384.91;;;19.07;68.92
9969;BME280;5025;48.890;9.278;2022-07-10T00:08:14;99394.72;;;19.08;69.11
9969;BME280;5025;48.890;9.278;2022-07-10T00:10:39;99396.38;;;19.09;69.05
9969;BME280;5025;48.890;9.278;2022-07-10T00:13:05;99390.91;;;19.09;68.96
9969;BME280;5025;48.890;9.278;2022-07-10T00:15:31;99381.59;;;19.05;69.27
9969;BME280;5025;48.890;9.278;2022-07-10T00:17:57;99387.63;;;19.07;69.27
9969;BME280;5025;48.890;9.278;2022-07-10T00:20:22;99381.03;;;19.03;69.35
9969;BME280;5025;48.890;9.278;2022-07-10T00:22:48;99388.44;;;19.03;69.56
9969;BME280;5025;48.890;9.278;2022-07-10T00:25:13;99386.25;;;18.99;69.30
9969;BME280;5025;48.890;9.278;2022-07-10T00:27:39;99380.78;;;18.99;69.42
9969;BME280;5025;48.890;9.278;2022-07-10T00:30:07;99376.66;;;18.97;69.45
9969;BME280;5025;48.890;9.278;2022-07-10T00:32:33;99381.03;;;18.98;69.54
9969;BME280;5025;48.890;9.278;2022-07-10T00:34:59;99384.31;;;18.95;69.68
9969;BME280;5025;48.890;9.278;2022-07-10T00:37:24;99383.19;;;18.91;69.82
9969;BME280;5025;48.890;9.278;2022-07-10T00:39:49;99384.81;;;18.87;69.96
9969;BME280;5025;48.890;9.278;2022-07-10T00:42:15;99382.09;;;18.87;70.07
9969;BME280;5025;48.890;9.278;2022-07-10T00:44:42;99383.44;;;18.84;70.03
9969;BME280;5025;48.890;9.278;2022-07-10T00:47:08;99388.06;;;18.84;70.08
9969;BME280;5025;48.890;9.278;2022-07-10T00:49:35;99386.97;;;18.79;70.10
9969;BME280;5025;48.890;9.278;2022-07-10T00:52:03;99385.03;;;18.75;70.09
9969;BME280;5025;48.890;9.278;2022-07-10T00:54:31;99394.06;;;18.70;70.18
9969;BME280;5025;48.890;9.278;2022-07-10T00:56:58;99383.63;;;18.67;70.22
9969;BME280;5025;48.890;9.278;2022-07-10T00:59:25;99388.00;;;18.63;70.27
9969;BME280;5025;48.890;9.278;2022-07-10T01:01:51;99384.72;;;18.61;70.48
9969;BME280;5025;48.890;9.278;2022-07-10T01:04:17;99379.19;;;18.56;70.26
9969;BME280;5025;48.890;9.278;2022-07-10T01:06:42;99372.91;;;18.50;70.28
9969;BME280;5025;48.890;9.278;2022-07-10T01:09:07;99376.72;;;18.49;70.33
9969;BME280;5025;48.890;9.278;2022-07-10T01:11:33;99378.03;;;18.41;70.46
9969;BME280;5025;48.890;9.278;2022-07-10T01:14:00;99373.91;;;18.34;70.57
9969;BME280;5025;48.890;9.278;2022-07-10T01:16:26;99369.81;;;18.31;70.50
9969;BME280;5025;48.890;9.278;2022-07-10T01:18:51;99368.13;;;18.25;70.55
9969;BME280;5025;48.890;9.278;2022-07-10T01:21:27;99375.50;;;18.24;70.43
9969;BME280;5025;48.890;9.278;2022-07-10T01:23:53;99367.28;;;18.24;70.80
9969;BME280;5025;48.890;9.278;2022-07-10T01:26:19;99369.47;;;18.22;70.68
9969;BME280;5025;48.890;9.278;2022-07-10T01:28:48;99368.63;;;18.17;70.84
9969;BME280;5025;48.890;9.278;2022-07-10T01:31:13;99357.13;;;18.15;70.80
9969;BME280;5025;48.890;9.278;2022-07-10T01:33:39;99365.34;;;18.15;70.86
9969;BME280;5025;48.890;9.278;2022-07-10T01:36:05;99357.66;;;18.12;71.02
9969;BME280;5025;48.890;9.278;2022-07-10T01:38:30;99364.47;;;18.09;71.21
9969;BME280;5025;48.890;9.278;2022-07-10T01:40:55;99355.47;;;18.08;71.24
9969;BME280;5025;48.890;9.278;2022-07-10T01:43:20;99355.47;;;18.08;71.31
9969;BME280;5025;48.890;9.278;2022-07-10T01:45:46;99362.84;;;18.08;71.29
9969;BME280;5025;48.890;9.278;2022-07-10T01:48:11;99368.56;;;18.06;71.18
9969;BME280;5025;48.890;9.278;2022-07-10T01:50:36;99363.91;;;18.07;71.56
9969;BME280;5025;48.890;9.278;2022-07-10T01:53:02;99366.91;;;18.05;71.32
9969;BME280;5025;48.890;9.278;2022-07-10T01:55:31;99369.91;;;18.04;71.38
9969;BME280;5025;48.890;9.278;2022-07-10T01:57:56;99375.66;;;18.02;71.40
9969;BME280;5025;48.890;9.278;2022-07-10T02:00:22;99376.44;;;17.98;71.32
9969;BME280;5025;48.890;9.278;2022-07-10T02:02:47;99373.69;;;17.98;71.60
9969;BME280;5025;48.890;9.278;2022-07-10T02:05:32;99374.22;;;17.95;71.46
9969;BME280;5025;48.890;9.278;2022-07-10T02:07:57;99377.78;;;17.95;71.62
9969;BME280;5025;48.890;9.278;2022-07-10T02:10:24;99372.03;;;17.91;71.62
9969;BME280;5025;48.890;9.278;2022-07-10T02:12:49;99367.88;;;17.89;71.53
9969;BME280;5025;48.890;9.278;2022-07-10T02:15:14;99372.03;;;17.91;71.42
9969;BME280;5025;48.890;9.278;2022-07-10T02:17:40;99369.53;;;17.90;71.51
9969;BME280;5025;48.890;9.278;2022-07-10T02:20:05;99370.63;;;17.89;71.51
9969;BME280;5025;48.890;9.278;2022-07-10T02:22:31;99367.56;;;17.85;71.44
9969;BME280;5025;48.890;9.278;2022-07-10T02:24:56;99374.38;;;17.83;71.42
9969;BME280;5025;48.890;9.278;2022-07-10T02:27:21;99382.56;;;17.83;71.67
9969;BME280;5025;48.890;9.278;2022-07-10T02:29:47;99383.09;;;17.80;71.66
9969;BME280;5025;48.890;9.278;2022-07-10T02:32:12;99386.34;;;17.77;71.92
9969;BME280;5025;48.890;9.278;2022-07-10T02:34:38;99389.59;;;17.73;71.65
9969;BME280;5025;48.890;9.278;2022-07-10T02:37:03;99390.72;;;17.72;71.67
9969;BME280;5025;48.890;9.278;2022-07-10T02:39:29;99391.22;;;17.69;71.79
9969;BME280;5025;48.890;9.278;2022-07-10T02:41:54;99387.91;;;17.67;71.76
9969;BME280;5025;48.890;9.278;2022-07-10T02:44:20;99387.91;;;17.67;71.98
9969;BME280;5025;48.890;9.278;2022-07-10T02:46:45;99387.91;;;17.67;71.81
9969;BME280;5025;48.890;9.278;2022-07-10T02:49:10;99393.09;;;17.64;71.86
9969;BME280;5025;48.890;9.278;2022-07-10T02:51:36;99392.28;;;17.63;71.77
9969;BME280;5025;48.890;9.278;2022-07-10T02:54:01;99397.72;;;17.63;72.16
9969;BME280;5025;48.890;9.278;2022-07-10T02:56:27;99398.25;;;17.60;71.89
9969;BME280;5025;48.890;9.278;2022-07-10T02:58:52;99402.06;;;17.59;71.99
9969;BME280;5025;48.890;9.278;2022-07-10T03:01:18;99395.44;;;17.55;72.10
9969;BME280;5025;48.890;9.278;2022-07-10T03:03:43;99395.97;;;17.52;72.22
9969;BME280;5025;48.890;9.278;2022-07-10T03:06:09;99398.97;;;17.50;72.21
9969;BME280;5025;48.890;9.278;2022-07-10T03:08:34;99405.53;;;17.49;72.40
9969;BME280;5025;48.890;9.278;2022-07-10T03:11:00;99392.66;;;17.45;72.26
9969;BME280;5025;48.890;9.278;2022-07-10T03:13:25;99403.00;;;17.43;72.19
9969;BME280;5025;48.890;9.278;2022-07-10T03:15:53;99399.69;;;17.41;72.18
9969;BME280;5025;48.890;9.278;2022-07-10T03:18:19;99401.03;;;17.38;72.32
9969;BME280;5025;48.890;9.278;2022-07-10T03:20:44;99399.66;;;17.35;72.12
9969;BME280;5025;48.890;9.278;2022-07-10T03:23:09;99393.63;;;17.33;72.25
9969;BME280;5025;48.890;9.278;2022-07-10T03:25:35;99391.47;;;17.35;72.13
9969;BME280;5025;48.890;9.278;2022-07-10T03:28:00;99399.06;;;17.33;71.89
9969;BME280;5025;48.890;9.278;2022-07-10T03:30:25;99387.84;;;17.30;71.84
9969;BME280;5025;48.890;9.278;2022-07-10T03:32:50;99397.72;;;17.31;72.03
9969;BME280;5025;48.890;9.278;2022-07-10T03:35:16;99400.44;;;17.31;71.96
9969;BME280;5025;48.890;9.278;2022-07-10T03:37:41;99412.44;;;17.30;72.00
9969;BME280;5025;48.890;9.278;2022-07-10T03:40:08;99406.97;;;17.30;72.05
9969;BME280;5025;48.890;9.278;2022-07-10T03:42:33;99400.69;;;17.29;72.19
9969;BME280;5025;48.890;9.278;2022-07-10T03:44:59;99407.22;;;17.28;72.00
9969;BME280;5025;48.890;9.278;2022-07-10T03:47:24;99398.53;;;17.31;72.13
9969;BME280;5025;48.890;9.278;2022-07-10T03:49:50;99397.72;;;17.31;72.25
9969;BME280;5025;48.890;9.278;2022-07-10T03:52:15;99394.66;;;17.27;72.10
9969;BME280;5025;48.890;9.278;2022-07-10T03:54:40;99397.38;;;17.27;72.22
9969;BME280;5025;48.890;9.278;2022-07-10T03:57:06;99398.47;;;17.26;72.15
9969;BME280;5025;48.890;9.278;2022-07-10T03:59:50;99399.28;;;17.27;72.28
9969;BME280;5025;48.890;9.278;2022-07-10T04:02:15;99400.94;;;17.28;72.15
9969;BME280;5025;48.890;9.278;2022-07-10T04:04:41;99406.66;;;17.26;72.08
9969;BME280;5025;48.890;9.278;2022-07-10T04:07:06;99406.09;;;17.24;72.27
9969;BME280;5025;48.890;9.278;2022-07-10T04:09:32;99397.63;;;17.26;72.10
9969;BME280;5025;48.890;9.278;2022-07-10T04:11:57;99396.81;;;17.25;72.16
9969;BME280;5025;48.890;9.278;2022-07-10T04:14:22;99395.06;;;17.14;72.12
9969;BME280;5025;48.890;9.278;2022-07-10T04:16:47;99393.97;;;17.15;72.33
9969;BME280;5025;48.890;9.278;2022-07-10T04:19:13;99397.28;;;17.17;72.20
9969;BME280;5025;48.890;9.278;2022-07-10T04:21:38;99409.31;;;17.21;72.29
9969;BME280;5025;48.890;9.278;2022-07-10T04:24:04;99399.00;;;17.23;72.25
9969;BME280;5025;48.890;9.278;2022-07-10T04:26:29;99415.94;;;17.25;72.20
9969;BME280;5025;48.890;9.278;2022-07-10T04:28:55;99413.72;;;17.22;72.34
9969;BME280;5025;48.890;9.278;2022-07-10T04:31:20;99412.56;;;17.18;72.38
9969;BME280;5025;48.890;9.278;2022-07-10T04:33:46;99411.50;;;17.19;72.28
9969;BME280;5025;48.890;9.278;2022-07-10T04:36:11;99417.47;;;17.16;72.58
9969;BME280;5025;48.890;9.278;2022-07-10T04:38:36;99416.16;;;17.18;72.63
9969;BME280;5025;48.890;9.278;2022-07-10T04:41:02;99406.59;;;17.21;72.44
9969;BME280;5025;48.890;9.278;2022-07-10T04:43:30;99411.28;;;17.26;72.31
9969;BME280;5025;48.890;9.278;2022-07-10T04:45:55;99409.69;;;17.30;72.14
9969;BME280;5025;48.890;9.278;2022-07-10T04:48:20;99406.72;;;17.31;72.21
9969;BME280;5025;48.890;9.278;2022-07-10T04:50:46;99405.63;;;17.32;72.03
9969;BME280;5025;48.890;9.278;2022-07-10T04:53:12;99415.47;;;17.33;72.22
9969;BME280;5025;48.890;9.278;2022-07-10T04:55:37;99411.91;;;17.33;72.21
9969;BME280;5025;48.890;9.278;2022-07-10T04:58:02;99412.69;;;17.28;72.20
9969;BME280;5025;48.890;9.278;2022-07-10T05:00:28;99408.03;;;17.29;72.40
9969;BME280;5025;48.890;9.278;2022-07-10T05:02:53;99406.66;;;17.26;72.21
9969;BME280;5025;48.890;9.278;2022-07-10T05:05:18;99415.66;;;17.27;72.28
9969;BME280;5025;48.890;9.278;2022-07-10T05:07:44;99421.13;;;17.27;72.18
9969;BME280;5025;48.890;9.278;2022-07-10T05:10:09;99422.19;;;17.26;72.21
9969;BME280;5025;48.890;9.278;2022-07-10T05:12:34;99413.28;;;17.08;72.06
9969;BME280;5025;48.890;9.278;2022-07-10T05:15:00;99419.25;;;17.05;72.43
9969;BME280;5025;48.890;9.278;2022-07-10T05:17:26;99422.06;;;17.10;72.38
9969;BME280;5025;48.890;9.278;2022-07-10T05:19:53;99426.16;;;17.13;72.11
9969;BME280;5025;48.890;9.278;2022-07-10T05:22:21;99429.78;;;17.18;72.22
9969;BME280;5025;48.890;9.278;2022-07-10T05:24:46;99428.19;;;17.23;72.05
9969;BME280;5025;48.890;9.278;2022-07-10T05:27:11;99435.03;;;17.25;72.14
9969;BME280;5025;48.890;9.278;2022-07-10T05:29:36;99432.31;;;17.25;72.05
9969;BME280;5025;48.890;9.278;2022-07-10T05:32:02;99432.56;;;17.24;72.20
9969;BME280;5025;48.890;9.278;2022-07-10T05:34:27;99438.31;;;17.27;72.29
9969;BME280;5025;48.890;9.278;2022-07-10T05:36:53;99432.94;;;17.32;72.19
9969;BME280;5025;48.890;9.278;2022-07-10T05:39:18;99435.16;;;17.35;71.98
9969;BME280;5025;48.890;9.278;2022-07-10T05:41:43;99439.25;;;17.38;71.87
9969;BME280;5025;48.890;9.278;2022-07-10T05:44:09;99444.47;;;17.39;71.68
9969;BME280;5025;48.890;9.278;2022-07-10T05:46:34;99443.09;;;17.37;71.58
9969;BME280;5025;48.890;9.278;2022-07-10T05:48:59;99443.34;;;17.35;71.57
9969;BME280;5025;48.890;9.278;2022-07-10T05:51:25;99440.63;;;17.35;71.20
9969;BME280;5025;48.890;9.278;2022-07-10T05:53:50;99446.34;;;17.34;71.30
9969;BME280;5025;48.890;9.278;2022-07-10T05:56:15;99449.88;;;17.34;70.91
9969;BME280;5025;48.890;9.278;2022-07-10T05:58:41;99451.28;;;17.37;70.65
9969;BME280;5025;48.890;9.278;2022-07-10T06:01:06;99452.06;;;17.32;70.46
9969;BME280;5025;48.890;9.278;2022-07-10T06:03:31;99453.38;;;17.30;70.31
9969;BME280;5025;48.890;9.278;2022-07-10T06:05:58;99458.59;;;17.31;70.06
9969;BME280;5025;48.890;9.278;2022-07-10T06:08:24;99448.81;;;17.35;69.87
9969;BME280;5025;48.890;9.278;2022-07-10T06:10:50;99461.59;;;17.35;69.35
9969;BME280;5025;48.890;9.278;2022-07-10T06:13:15;99467.28;;;17.28;68.77
9969;BME280;5025;48.890;9.278;2022-07-10T06:15:40;99463.78;;;17.33;68.77
9969;BME280;5025;48.890;9.278;2022-07-10T06:18:06;99464.00;;;17.26;68.77
9969;BME280;5025;48.890;9.278;2022-07-10T06:20:31;99460.78;;;17.34;68.58
9969;BME280;5025;48.890;9.278;2022-07-10T06:22:57;99456.38;;;17.28;68.47
9969;BME280;5025;48.890;9.278;2022-07-10T06:25:23;99461.25;;;17.26;68.52
9969;BME280;5025;48.890;9.278;2022-07-10T06:27:48;99459.72;;;17.35;68.20
9969;BME280;5025;48.890;9.278;2022-07-10T06:30:14;99471.75;;;17.39;68.15
9969;BME280;5025;48.890;9.278;2022-07-10T06:32:39;99470.47;;;17.47;68.25
9969;BME280;5025;48.890;9.278;2022-07-10T06:35:05;99475.75;;;17.54;68.01
9969;BME280;5025;48.890;9.278;2022-07-10T06:37:32;99479.03;;;17.56;67.91
9969;BME280;5025;48.890;9.278;2022-07-10T06:39:57;99473.88;;;17.60;67.70
9969;BME280;5025;48.890;9.278;2022-07-10T06:42:23;99480.47;;;17.64;67.67
9969;BME280;5025;48.890;9.278;2022-07-10T06:44:48;99474.00;;;17.70;67.45
9969;BME280;5025;48.890;9.278;2022-07-10T06:47:15;99474.88;;;17.76;67.03
9969;BME280;5025;48.890;9.278;2022-07-10T06:50:01;99471.63;;;17.79;66.83
9969;BME280;5025;48.890;9.278;2022-07-10T06:52:27;99477.09;;;17.79;66.82
9969;BME280;5025;48.890;9.278;2022-07-10T06:54:52;99482.03;;;17.82;66.51
9969;BME280;5025;48.890;9.278;2022-07-10T06:57:18;99483.13;;;17.86;66.22
9969;BME280;5025;48.890;9.278;2022-07-10T06:59:45;99480.16;;;17.87;65.92
9969;BME280;5025;48.890;9.278;2022-07-10T07:02:10;99482.66;;;17.89;65.65
9969;BME280;5025;48.890;9.278;2022-07-10T07:04:35;99480.16;;;17.87;65.51
9969;BME280;5025;48.890;9.278;2022-07-10T07:07:02;99483.41;;;17.84;65.27
9969;BME280;5025;48.890;9.278;2022-07-10T07:09:27;99482.59;;;17.84;65.22
9969;BME280;5025;48.890;9.278;2022-07-10T07:11:53;99485.31;;;17.84;64.99
9969;BME280;5025;48.890;9.278;2022-07-10T07:14:18;99490.53;;;17.85;64.73
9969;BME280;5025;48.890;9.278;2022-07-10T07:16:43;99484.78;;;17.87;64.50
9969;BME280;5025;48.890;9.278;2022-07-10T07:19:22;99481.00;;;17.88;64.42
9969;BME280;5025;48.890;9.278;2022-07-10T07:21:56;99488.88;;;17.84;63.64
9969;BME280;5025;48.890;9.278;2022-07-10T07:24:40;99491.34;;;17.86;63.40
9969;BME280;5025;48.890;9.278;2022-07-10T07:27:05;99496.81;;;17.86;63.16
9969;BME280;5025;48.890;9.278;2022-07-10T07:29:30;99503.88;;;17.82;62.57
9969;BME280;5025;48.890;9.278;2022-07-10T07:31:56;99500.56;;;17.80;62.42
9969;BME280;5025;48.890;9.278;2022-07-10T07:34:21;99500.53;;;17.74;62.06
9969;BME280;5025;48.890;9.278;2022-07-10T07:36:46;99509.78;;;17.73;61.91
9969;BME280;5025;48.890;9.278;2022-07-10T07:39:12;99502.13;;;17.70;61.36
9969;BME280;5025;48.890;9.278;2022-07-10T07:41:37;99501.56;;;17.68;61.22
9969;BME280;5025;48.890;9.278;2022-07-10T07:44:02;99505.88;;;17.64;61.01
9969;BME280;5025;48.890;9.278;2022-07-10T07:46:28;99501.81;;;17.67;61.08
9969;BME280;5025;48.890;9.278;2022-07-10T07:48:53;99508.44;;;17.71;60.75
9969;BME280;5025;48.890;9.278;2022-07-10T07:51:18;99510.31;;;17.70;60.55
9969;BME280;5025;48.890;9.278;2022-07-10T07:53:44;99506.50;;;17.71;60.17
9969;BME280;5025;48.890;9.278;2022-07-10T07:56:09;99507.13;;;17.79;60.12
9969;BME280;5025;48.890;9.278;2022-07-10T07:58:34;99506.09;;;17.85;60.05
9969;BME280;5025;48.890;9.278;2022-07-10T08:01:00;99508.50;;;17.81;59.24
9969;BME280;5025;48.890;9.278;2022-07-10T08:03:25;99513.03;;;17.70;58.58
9969;BME280;5025;48.890;9.278;2022-07-10T08:05:50;99510.41;;;17.81;58.55
9969;BME280;5025;48.890;9.278;2022-07-10T08:08:16;99502.84;;;17.88;58.13
9969;BME280;5025;48.890;9.278;2022-07-10T08:10:41;99496.91;;;17.91;58.21
9969;BME280;5025;48.890;9.278;2022-07-10T08:13:06;99496.69;;;17.98;57.94
9969;BME280;5025;48.890;9.278;2022-07-10T08:15:32;99491.50;;;18.01;57.75
9969;BME280;5025;48.890;9.278;2022-07-10T08:18:00;99489.38;;;18.08;57.75
9969;BME280;5025;48.890;9.278;2022-07-10T08:20:26;99491.31;;;18.08;57.45
9969;BME280;5025;48.890;9.278;2022-07-10T08:22:52;99487.78;;;18.13;57.31
9969;BME280;5025;48.890;9.278;2022-07-10T08:25:20;99492.22;;;18.19;57.24
9969;BME280;5025;48.890;9.278;2022-07-10T08:27:46;99497.44;;;18.25;56.93
9969;BME280;5025;48.890;9.278;2022-07-10T08:30:12;99489.28;;;18.31;57.03
9969;BME280;5025;48.890;9.278;2022-07-10T08:32:38;99476.09;;;18.22;55.97
9969;BME280;5025;48.890;9.278;2022-07-10T08:35:04;99483.50;;;18.27;56.16
9969;BME280;5025;48.890;9.278;2022-07-10T08:37:39;99479.19;;;18.31;55.96
9969;BME280;5025;48.890;9.278;2022-07-10T08:40:08;99479.75;;;18.38;55.92
9969;BME280;5025;48.890;9.278;2022-07-10T08:42:34;99478.69;;;18.44;55.65
9969;BME280;5025;48.890;9.278;2022-07-10T08:45:00;99477.09;;;18.49;55.73
9969;BME280;5025;48.890;9.278;2022-07-10T08:47:25;99471.66;;;18.54;55.57
9969;BME280;5025;48.890;9.278;2022-07-10T08:49:52;99474.94;;;18.56;55.24
9969;BME280;5025;48.890;9.278;2022-07-10T08:52:26;99482.59;;;18.59;54.78
9969;BME280;5025;48.890;9.278;2022-07-10T08:54:53;99468.94;;;18.59;54.16
9969;BME280;5025;48.890;9.278;2022-07-10T08:57:19;99474.38;;;18.54;53.00
9969;BME280;5025;48.890;9.278;2022-07-10T08:59:45;99469.78;;;18.59;53.00
9969;BME280;5025;48.890;9.278;2022-07-10T09:02:10;99478.88;;;18.70;53.09
9969;BME280;5025;48.890;9.278;2022-07-10T09:04:35;99470.13;;;18.78;52.99
9969;BME280;5025;48.890;9.278;2022-07-10T09:07:01;99476.47;;;18.84;52.83
9969;BME280;5025;48.890;9.278;2022-07-10T09:09:26;99481.34;;;18.77;51.41
9969;BME280;5025;48.890;9.278;2022-07-10T09:11:58;99475.50;;;18.58;49.93
9969;BME280;5025;48.890;9.278;2022-07-10T09:14:27;99482.34;;;18.60;50.48
9969;BME280;5025;48.890;9.278;2022-07-10T09:16:53;99486.47;;;18.63;50.37
9969;BME280;5025;48.890;9.278;2022-07-10T09:19:26;99480.22;;;18.73;49.61
9969;BME280;5025;48.890;9.278;2022-07-10T09:21:54;99484.81;;;18.62;48.16
9969;BME280;5025;48.890;9.278;2022-07-10T09:24:21;99469.53;;;18.66;48.45
9969;BME280;5025;48.890;9.278;2022-07-10T09:29:20;99477.88;;;18.44;47.66
9969;BME280;5025;48.890;9.278;2022-07-10T09:31:50;99476.56;;;18.52;48.24
9969;BME280;5025;48.890;9.278;2022-07-10T09:34:16;99480.75;;;18.70;48.25
9969;BME280;5025;48.890;9.278;2022-07-10T09:36:43;99474.06;;;18.93;48.31
9969;BME280;5025;48.890;9.278;2022-07-10T09:39:08;99478.44;;;18.89;46.97
9969;BME280;5025;48.890;9.278;2022-07-10T09:41:33;99486.72;;;19.04;47.44
9969;BME280;5025;48.890;9.278;2022-07-10T09:44:05;99482.38;;;19.19;47.32
9969;BME280;5025;48.890;9.278;2022-07-10T09:51:34;99490.16;;;19.47;46.82
9969;BME280;5025;48.890;9.278;2022-07-10T09:54:01;99495.06;;;19.45;46.32
9969;BME280;5025;48.890;9.278;2022-07-10T09:56:34;99498.06;;;19.44;46.09
9969;BME280;5025;48.890;9.278;2022-07-10T09:59:07;99487.88;;;19.19;45.25
9969;BME280;5025;48.890;9.278;2022-07-10T10:01:35;99488.44;;;19.31;45.69
9969;BME280;5025;48.890;9.278;2022-07-10T10:04:03;99482.19;;;19.46;45.90
9969;BME280;5025;48.890;9.278;2022-07-10T10:06:29;99475.09;;;19.55;45.84
9969;BME280;5025;48.890;9.278;2022-07-10T10:08:59;99475.38;;;19.64;45.27
9969;BME280;5025;48.890;9.278;2022-07-10T10:11:31;99474.25;;;19.44;43.05
9969;BME280;5025;48.890;9.278;2022-07-10T10:13:57;99481.78;;;19.06;44.07
9969;BME280;5025;48.890;9.278;2022-07-10T10:16:25;99475.06;;;18.76;44.43
9969;BME280;5025;48.890;9.278;2022-07-10T10:18:52;99477.31;;;18.85;45.20
9969;BME280;5025;48.890;9.278;2022-07-10T10:21:38;99467.28;;;19.06;45.16
9969;BME280;5025;48.890;9.278;2022-07-10T10:24:04;99470.31;;;19.09;44.36
9969;BME280;5025;48.890;9.278;2022-07-10T10:26:29;99465.47;;;19.32;44.37
9969;BME280;5025;48.890;9.278;2022-07-10T10:28:57;99465.47;;;19.42;44.40
9969;BME280;5025;48.890;9.278;2022-07-10T10:31:24;99467.13;;;19.43;44.70
9969;BME280;5025;48.890;9.278;2022-07-10T10:33:54;99461.91;;;19.47;44.86
9969;BME280;5025;48.890;9.278;2022-07-10T10:39:12;99458.13;;;19.68;45.50
9969;BME280;5025;48.890;9.278;2022-07-10T10:46:34;99451.31;;;19.92;44.08
9969;BME280;5025;48.890;9.278;2022-07-10T10:49:06;99448.56;;;20.02;44.00
9969;BME280;5025;48.890;9.278;2022-07-10T10:54:28;99446.59;;;20.33;44.22
9969;BME280;5025;48.890;9.278;2022-07-10T10:57:13;99445.50;;;20.50;43.94
9969;BME280;5025;48.890;9.278;2022-07-10T10:59:52;99453.69;;;20.55;41.96
9969;BME280;5025;48.890;9.278;2022-07-10T11:02:28;99459.75;;;20.52;42.00
9969;BME280;5025;48.890;9.278;2022-07-10T11:10:29;99449.94;;;20.25;43.00
9969;BME280;5025;48.890;9.278;2022-07-10T11:13:15;99454.88;;;20.02;43.43
9969;BME280;5025;48.890;9.278;2022-07-10T11:15:43;99460.88;;;19.89;44.40
9969;BME280;5025;48.890;9.278;2022-07-10T11:18:13;99456.81;;;20.02;44.17
9969;BME280;5025;48.890;9.278;2022-07-10T11:20:49;99455.41;;;20.15;44.30
9969;BME280;5025;48.890;9.278;2022-07-10T11:25:54;99447.41;;;20.44;44.47
9969;BME280;5025;48.890;9.278;2022-07-10T11:31:10;99441.94;;;20.44;42.64
9969;BME280;5025;48.890;9.278;2022-07-10T11:33:40;99435.31;;;20.60;42.52
9969;BME280;5025;48.890;9.278;2022-07-10T11:36:12;99434.44;;;20.81;42.55
9969;BME280;5025;48.890;9.278;2022-07-10T11:38:39;99435.72;;;20.99;42.88
9969;BME280;5025;48.890;9.278;2022-07-10T11:41:04;99439.00;;;21.06;42.93
9969;BME280;5025;48.890;9.278;2022-07-10T11:43:45;99444.81;;;20.99;42.90
9969;BME280;5025;48.890;9.278;2022-07-10T11:46:11;99438.84;;;20.76;42.45
9969;BME280;5025;48.890;9.278;2022-07-10T11:48:40;99439.66;;;20.62;43.30
9969;BME280;5025;48.890;9.278;2022-07-10T11:51:28;99437.78;;;20.52;42.96
9969;BME280;5025;48.890;9.278;2022-07-10T11:56:22;99443.25;;;20.72;43.17
9969;BME280;5025;48.890;9.278;2022-07-10T11:58:58;99438.00;;;20.81;43.17
9969;BME280;5025;48.890;9.278;2022-07-10T12:01:24;99435.22;;;20.91;43.32
9969;BME280;5025;48.890;9.278;2022-07-10T12:03:56;99428.53;;;21.08;42.95
9969;BME280;5025;48.890;9.278;2022-07-10T12:06:23;99432.94;;;21.09;41.61
9969;BME280;5025;48.890;9.278;2022-07-10T12:08:48;99432.97;;;21.04;41.42
9969;BME280;5025;48.890;9.278;2022-07-10T12:11:15;99439.75;;;21.17;41.90
9969;BME280;5025;48.890;9.278;2022-07-10T12:13:41;99440.53;;;21.27;41.44
9969;BME280;5025;48.890;9.278;2022-07-10T12:16:06;99448.38;;;21.49;41.51
9969;BME280;5025;48.890;9.278;2022-07-10T12:18:32;99450.78;;;21.61;41.29
9969;BME280;5025;48.890;9.278;2022-07-10T12:20:59;99437.00;;;21.66;41.18
9969;BME280;5025;48.890;9.278;2022-07-10T12:23:25;99448.53;;;21.69;41.21
9969;BME280;5025;48.890;9.278;2022-07-10T12:25:50;99435.81;;;21.78;41.03
9969;BME280;5025;48.890;9.278;2022-07-10T12:28:16;99444.78;;;21.94;40.88
9969;BME280;5025;48.890;9.278;2022-07-10T12:30:46;99436.69;;;22.02;40.14
9969;BME280;5025;48.890;9.278;2022-07-10T12:33:22;99446.66;;;21.98;38.94
9969;BME280;5025;48.890;9.278;2022-07-10T12:35:58;99440.53;;;21.72;38.15
9969;BME280;5025;48.890;9.278;2022-07-10T12:38:26;99433.59;;;21.80;38.94
9969;BME280;5025;48.890;9.278;2022-07-10T12:41:07;99435.16;;;21.91;38.74
9969;BME280;5025;48.890;9.278;2022-07-10T12:43:34;99440.31;;;21.98;38.85
9969;BME280;5025;48.890;9.278;2022-07-10T12:46:12;99439.91;;;21.80;38.36
9969;BME280;5025;48.890;9.278;2022-07-10T12:48:41;99434.13;;;21.82;38.52
9969;BME280;5025;48.890;9.278;2022-07-10T12:51:22;99430.59;;;22.11;38.65
9969;BME280;5025;48.890;9.278;2022-07-10T12:53:48;99441.38;;;22.36;38.66
9969;BME280;5025;48.890;9.278;2022-07-10T12:56:37;99433.06;;;22.66;38.43
9969;BME280;5025;48.890;9.278;2022-07-10T12:59:11;99436.41;;;22.87;38.46
9969;BME280;5025;48.890;9.278;2022-07-10T13:01:47;99434.69;;;22.91;36.93
9969;BME280;5025;48.890;9.278;2022-07-10T13:04:12;99437.94;;;22.50;36.62
9969;BME280;5025;48.890;9.278;2022-07-10T13:06:38;99428.72;;;22.60;36.82
9969;BME280;5025;48.890;9.278;2022-07-10T13:09:24;99432.06;;;22.81;36.84
9969;BME280;5025;48.890;9.278;2022-07-10T13:11:53;99424.59;;;23.05;36.38
9969;BME280;5025;48.890;9.278;2022-07-10T13:14:19;99428.78;;;23.22;36.23
9969;BME280;5025;48.890;9.278;2022-07-10T13:16:45;99430.31;;;23.33;36.03
9969;BME280;5025;48.890;9.278;2022-07-10T13:19:10;99437.91;;;23.41;36.10
9969;BME280;5025;48.890;9.278;2022-07-10T13:21:36;99436.53;;;23.39;35.88
9969;BME280;5025;48.890;9.278;2022-07-10T13:24:03;99429.72;;;23.36;35.77
9969;BME280;5025;48.890;9.278;2022-07-10T13:26:29;99422.91;;;23.48;35.74
9969;BME280;5025;48.890;9.278;2022-07-10T13:28:55;99427.16;;;23.59;34.25
9969;BME280;5025;48.890;9.278;2022-07-10T13:31:20;99423.88;;;23.19;34.08
9969;BME280;5025;48.890;9.278;2022-07-10T13:33:46;99422.56;;;23.16;33.59
9969;BME280;5025;48.890;9.278;2022-07-10T13:36:11;99439.81;;;23.22;34.57
9969;BME280;5025;48.890;9.278;2022-07-10T13:38:37;99440.50;;;23.33;34.68
9969;BME280;5025;48.890;9.278;2022-07-10T13:41:03;99443.56;;;23.50;34.60
9969;BME280;5025;48.890;9.278;2022-07-10T13:43:28;99437.97;;;23.55;33.82
9969;BME280;5025;48.890;9.278;2022-07-10T13:45:58;99436.84;;;23.75;34.07
9969;BME280;5025;48.890;9.278;2022-07-10T13:48:24;99438.56;;;24.04;34.28
9969;BME280;5025;48.890;9.278;2022-07-10T13:50:50;99429.03;;;24.29;34.25
9969;BME280;5025;48.890;9.278;2022-07-10T13:53:16;99421.09;;;24.56;33.95